Aérodrome :
LOGIN :

S'inscrire | Disclaimer

   EN    FR    IT 

 










Légende :    VFR   VFR Marginal   IFR   IFR Intensif   IFR Très Intensif
Visi : 
Plafond : 
>= 8 km
>= 3000ft
5 à 8 km
1000 à 3000 ft
1500m à 5 km
500 à 1000 ft
800 à 1500m
200 à 500 ft
< 800m
< 200 ft
Symboles :   Orages  Brouillard  Fortes neiges  Fortes précipitations  Vent > 20 kt
SIGMETs :   Divers  Orages  Givrage  Turbulence  Onde Orograph.  Cendres Volcan.






- Altitude de l'aérodrome : 218 ft
- Code IATA : LBG


LFPB - Paris / Le Bourget

DERNIER METAR :
  • 250600Z AUTO 26010KT 9999 BKN011 BKN018 OVC025 02/01 Q1002 TEMPO 4500 -SHSN BKN009 SCT015TCU

METARs EXPIRÉS :
  • 250530Z AUTO 25009KT 9999 FEW011 BKN030 OVC049 02/00 Q1001 TEMPO 4500 -SHSN BKN009 SCT015TCU
  • 250500Z AUTO 26009KT 230V290 9999 FEW011 SCT032 OVC046 02/00 Q1001 TEMPO 4000 -SHSN BKN013 SCT015TCU
  • 250430Z AUTO 25010KT 9999 FEW015 BKN040 02/01 Q1001 TEMPO 4000 -SHSN BKN013 SCT015TCU
  • 250400Z AUTO 25008KT 9999 SCT015 BKN024 BKN044 02/00 Q1000 TEMPO 4000 -SHSN BKN013 SCT015TCU
  • 250330Z AUTO 26008KT 230V290 9999 OVC015 02/00 Q1000 TEMPO 4000 -SHSN BKN013 SCT015TCU

TAF TAF LFPB
Valide du 25 à 06h jusqu'au 26 à 06h UTC


250500Z 2506/2606 28010KT 9999 FEW009 BKN014
PROB40
TEMPO 2506/2509 4500 -SHSN BKN009 SCT015TCU
BECMG 2509/2511 CAVOK
ATIS : +33 1 48 62 43 92



MET'MAP, la Météo Aéronautique d'un coup d'oeil ! - Copyright ORBIFLY Décembre 2007 - Disclaimer

ORBIFLY MET'MAP TEAM :

Programmation & Développement : Alexandra Zaïnal
Sur une idée originale de : Baudouin d'Aumeries
Assistance à la programmation : Marc-Olivier Méhu
Soutien technique & logistique : Manuel Goepfert

Contact : metmap@orbifly.com




SOURCES & CREDITS :

   NOAA